Latest Weather Observations for Mount Gellibrand

IDV60801

Issued at 1:31 pm EDT Thursday 11 February 2016 (issued every 30 minutes, with the page automatically refreshed every 10 minutes)

About weather observations | Map of weather stations | Latest weather observations for VIC | Other Formats
Station Details ID: 090035 Name: MOUNT GELLIBRAND Lat: -38.23 Lon: 143.79 Height: 261.0 m
Data from the previous 72 hours. | See also: Recent months at Mount Gellibrand
Date/Time
EDT
Temp
°C
App
Temp
°C
Dew
Point
Rel
Hum
%
Delta-T
°C
Wind Press
QNH
hPa
Press
MSL
hPa
Rain
since 9 am
mm
Dir
 
Spd
km/h
Gust
km/h
Spd
kts
Gust
kts
11/01:30pm 23.3 19.9 10.4 44 7.2 E 19 33 10 18 1016.6 1015.8 0.0
11/01:00pm 22.4 18.8 9.9 45 6.9 E 19 30 10 16 1016.8 1016.0 0.0
11/12:30pm 22.7 18.5 9.8 44 7.1 E 22 33 12 18 1016.9 1016.1 0.0
11/12:00pm 21.8 18.1 10.0 47 6.5 ESE 20 30 11 16 1017.3 1016.5 0.0
11/11:30am 21.7 18.1 10.5 49 6.2 ESE 20 28 11 15 1017.6 1016.8 0.0
11/11:00am 21.4 18.0 11.1 52 5.7 SE 20 28 11 15 1017.7 1016.9 0.0
11/10:30am 19.1 17.3 12.1 64 3.9 SSE 13 19 7 10 1018.1 1017.3 0.0
11/10:00am 20.4 17.8 11.9 58 4.8 ESE 17 24 9 13 1018.1 1017.3 0.0
11/09:30am 18.0 16.6 13.3 74 2.7 SE 13 19 7 10 1018.2 1017.4 0.0
11/09:00am 17.8 16.3 13.1 74 2.7 SE 13 20 7 11 1017.9 1017.1 0.0
11/08:30am 15.6 15.1 12.5 82 1.7 SSE 7 11 4 6 1017.7 1016.9 0.0
11/08:00am 14.6 14.2 12.3 86 1.3 SSW 6 7 3 4 1017.5 1016.7 0.0
11/07:30am 14.1 13.6 12.1 88 1.1 S 6 7 3 4 1017.3 1016.5 0.0
11/07:00am 13.3 12.1 11.5 89 1.0 S 9 11 5 6 1017.2 1016.4 0.0
11/06:30am 12.8 11.5 11.2 90 0.9 S 9 9 5 5 1016.9 1016.1 0.0
11/06:00am 13.9 12.6 11.4 85 1.3 SSE 9 11 5 6 1016.5 1015.7 0.0
11/05:30am 13.9 13.2 11.4 85 1.3 S 6 9 3 5 1016.4 1015.6 0.0
11/05:00am 13.6 12.9 11.5 87 1.1 S 6 6 3 3 1016.2 1015.4 0.0
11/04:30am 14.0 13.8 11.7 86 1.2 S 4 4 2 2 1016.1 1015.3 0.0
11/04:00am 14.1 13.8 11.6 85 1.4 SSW 4 4 2 2 1016.1 1015.3 0.0
11/03:30am 14.2 14.0 11.7 85 1.4 SSW 4 6 2 3 1016.2 1015.4 0.0
11/03:00am 14.4 14.2 11.7 84 1.5 SSW 4 6 2 3 1016.3 1015.5 0.0
11/02:30am 14.6 14.3 11.6 82 1.6 SSW 4 4 2 2 1016.5 1015.7 0.0
11/02:00am 14.5 13.9 11.7 83 1.5 SSW 6 6 3 3 1016.7 1015.9 0.0
11/01:30am 14.5 13.8 11.5 82 1.6 SSW 6 7 3 4 1016.8 1016.0 0.0
11/01:00am 14.3 13.4 11.5 83 1.5 SSW 7 7 4 4 1017.0 1016.2 0.0
11/12:30am 14.3 13.0 11.3 82 1.6 SSW 9 11 5 6 1017.0 1016.2 0.0
11/12:00am 14.7 13.0 11.3 80 1.8 SW 11 13 6 7 1017.1 1016.3 0.0
 
Date/Time
EDT
Temp
°C
App
Temp
°C
Dew
Point
Rel
Hum
%
Delta-T
°C
Wind Press
QNH
hPa
Press
MSL
hPa
Rain
since 9 am
mm
Dir
 
Spd
km/h
Gust
km/h
Spd
kts
Gust
kts
10/11:30pm 14.9 12.9 11.5 80 1.8 SSW 13 17 7 9 1017.1 1016.3 0.0
10/11:00pm 15.3 13.0 11.7 79 2.0 S 15 17 8 9 1017.2 1016.4 0.0
10/10:30pm 15.4 14.7 12.0 80 1.9 E 7 9 4 5 1017.3 1016.5 0.0
10/10:00pm 15.5 14.8 12.1 80 1.9 ENE 7 9 4 5 1017.0 1016.2 0.0
10/09:30pm 15.8 14.3 12.0 78 2.1 NE 11 13 6 7 1016.7 1015.9 0.0
10/09:00pm 16.3 14.1 12.1 76 2.3 NE 15 19 8 10 1016.4 1015.6 0.0
10/08:30pm 17.4 14.4 12.1 71 3.0 NE 19 20 10 11 1016.0 1015.2 0.0
10/08:00pm 18.7 15.8 12.2 66 3.6 NE 19 20 10 11 1015.5 1014.7 0.0
10/07:30pm 19.8 16.7 12.3 62 4.2 ENE 20 24 11 13 1015.2 1014.4 0.0
10/07:00pm 20.7 17.3 12.4 59 4.7 ENE 22 24 12 13 1014.9 1014.1 0.0
10/06:30pm 21.9 18.4 12.2 54 5.5 ENE 22 28 12 15 1014.6 1013.8 0.0
10/06:00pm 22.9 18.6 12.2 51 6.1 ENE 26 32 14 17 1014.3 1013.5 0.0
10/05:30pm 24.9 22.1 12.5 46 7.2 ENE 19 26 10 14 1014.3 1013.5 0.0
10/05:00pm 26.0 23.8 12.1 42 8.1 NE 15 22 8 12 1014.1 1013.3 0.0
10/04:30pm 27.7 26.3 9.0 31 10.4 S 6 11 3 6 1014.2 1013.4 0.0
10/04:00pm 27.4 26.1 9.3 32 10.1 S 6 11 3 6 1014.4 1013.6 0.0
10/03:30pm 27.6 26.4 9.4 32 10.2 SW 6 11 3 6 1014.6 1013.8 0.0
10/03:00pm 25.7 23.5 9.5 36 9.0 SW 11 17 6 9 1014.9 1014.1 0.0
10/02:30pm 25.5 23.4 9.7 37 8.8 SW 11 19 6 10 1015.1 1014.3 0.0
10/02:00pm 24.3 23.0 9.8 40 8.0 NW 7 11 4 6 1015.3 1014.5 0.0
10/01:30pm 24.6 23.5 10.1 40 8.1 SW 6 9 3 5 1015.5 1014.7 0.0
10/01:00pm 22.9 21.8 10.0 44 7.1 S 6 17 3 9 1016.0 1015.2 0.0
10/12:30pm 21.8 20.3 10.6 49 6.2 SSE 9 17 5 9 1016.4 1015.6 0.0
10/12:00pm 21.6 21.0 11.6 53 5.6 SSW 6 9 3 5 1016.8 1016.0 0.0
10/11:30am 20.6 20.0 12.3 59 4.7 S 7 11 4 6 1016.8 1016.0 0.0
10/11:00am 20.0 19.5 12.0 60 4.5 ESE 6 11 3 6 1017.0 1016.2 0.0
10/10:30am 18.9 18.3 12.2 65 3.8 ENE 7 15 4 8 1017.0 1016.2 0.0
10/10:00am 18.9 19.1 12.9 68 3.4 NE 4 9 2 5 1016.9 1016.1 0.0
10/09:30am 17.9 17.2 12.1 69 3.2 ENE 7 15 4 8 1016.8 1016.0 0.0
10/09:00am 16.8 17.0 12.9 78 2.2 SE 4 7 2 4 1016.9 1016.1 0.0
10/08:30am 15.5 16.6 14.5 94 0.6 SSW 2 4 1 2 1016.6 1015.8 0.0
10/08:00am 13.8 14.0 13.2 96 0.3 SSW 4 7 2 4 1016.5 1015.7 0.0
10/07:30am 12.8 12.3 12.2 96 0.3 SSW 6 7 3 4 1016.3 1015.5 0.0
10/07:00am 12.5 11.8 11.9 96 0.3 SSW 7 9 4 5 1016.2 1015.4 0.0
10/06:30am 12.3 11.4 11.5 95 0.4 SSW 7 9 4 5 1015.9 1015.1 0.0
10/06:00am 12.5 11.7 11.7 95 0.4 SSW 7 9 4 5 1015.6 1014.9 0.0
10/05:30am 12.9 12.8 12.0 94 0.5 SSW 4 6 2 3 1015.5 1014.7 0.0
10/05:00am 13.0 13.2 11.9 93 0.6 SSW 2 2 1 1 1015.4 1014.6 0.0
10/04:30am 13.0 12.8 11.7 92 0.7 SSW 4 6 2 3 1015.3 1014.5 0.0
10/04:00am 13.1 13.3 11.8 92 0.7 SSW 2 4 1 2 1015.6 1014.9 0.0
10/03:30am 13.4 13.3 12.0 91 0.8 SSW 4 6 2 3 1016.1 1015.3 0.0
10/03:00am 13.3 12.7 11.7 90 0.9 SSW 6 6 3 3 1016.3 1015.5 0.0
10/02:30am 13.2 11.9 11.4 89 1.0 SSW 9 9 5 5 1016.5 1015.7 0.0
10/02:00am 13.9 13.4 11.9 88 1.1 SSW 6 7 3 4 1016.6 1015.8 0.0
10/01:30am 13.8 12.6 11.7 87 1.1 S 9 11 5 6 1016.8 1016.0 0.0
10/01:00am 14.1 13.0 11.8 86 1.2 SE 9 11 5 6 1017.1 1016.3 0.0
10/12:30am 14.1 12.5 11.6 85 1.4 SE 11 13 6 7 1017.3 1016.5 0.0
10/12:00am 14.6 13.2 12.1 85 1.4 SE 11 13 6 7 1017.5 1016.7 0.0
 
Date/Time
EDT
Temp
°C
App
Temp
°C
Dew
Point
Rel
Hum
%
Delta-T
°C
Wind Press
QNH
hPa
Press
MSL
hPa
Rain
since 9 am
mm
Dir
 
Spd
km/h
Gust
km/h
Spd
kts
Gust
kts
09/11:30pm 14.5 13.0 11.8 84 1.5 SE 11 11 6 6 1017.8 1017.0 0.0
09/11:00pm 14.7 12.9 12.2 85 1.4 ESE 13 15 7 8 1017.9 1017.1 0.0
09/10:30pm 14.6 12.1 12.3 86 1.3 ESE 17 19 9 10 1017.9 1017.1 0.0
09/10:00pm 15.0 11.9 12.3 84 1.5 ESE 20 22 11 12 1017.9 1017.1 0.0
09/09:30pm 15.4 11.9 12.3 82 1.7 E 22 26 12 14 1017.8 1017.0 0.0
09/09:00pm 15.9 12.1 12.5 80 1.9 E 24 28 13 15 1017.6 1016.8 0.0
09/08:30pm 16.8 13.4 12.5 76 2.4 E 22 26 12 14 1017.6 1016.8 0.0
09/08:00pm 18.0 13.8 12.5 70 3.1 E 26 30 14 16 1017.6 1016.8 0.0
09/07:30pm 19.3 15.0 12.1 63 4.1 E 26 32 14 17 1017.6 1016.8 0.0
09/07:00pm 20.9 16.7 12.3 58 4.9 E 26 32 14 17 1017.3 1016.5 0.0
09/06:30pm 22.2 17.9 12.2 53 5.7 E 26 32 14 17 1017.1 1016.3 0.0
09/06:00pm 23.4 20.2 11.8 48 6.6 ENE 20 30 11 16 1017.2 1016.4 0.0
09/05:30pm 24.3 21.1 11.9 45 7.1 E 20 26 11 14 1017.5 1016.7 0.0
09/05:00pm 25.2 21.4 11.0 41 8.1 ENE 22 32 12 17 1017.7 1016.9 0.0
09/04:30pm 25.2 21.6 9.9 38 8.5 ENE 19 28 10 15 1018.1 1017.3 0.0
09/04:00pm 25.6 22.5 10.2 38 8.6 ENE 17 22 9 12 1018.5 1017.7 0.0
09/03:30pm 25.7 23.0 9.1 35 9.2 ENE 13 20 7 11 1018.8 1018.0 0.0
09/03:00pm 24.9 22.5 10.0 39 8.3 E 13 22 7 12 1019.3 1018.6 0.0
09/02:30pm 24.4 22.1 10.3 41 7.9 NE 13 26 7 14 1019.6 1018.9 0.0
09/02:00pm 23.6 22.1 10.6 44 7.3 NE 9 19 5 10 1019.9 1019.1 0.0
09/01:30pm 24.4 22.4 11.4 44 7.4 ENE 13 22 7 12 1020.3 1019.5 0.0
09/01:00pm 23.0 21.2 10.8 46 6.8 ENE 11 20 6 11 1020.6 1019.8 0.0
09/12:30pm 21.8 20.0 10.9 50 6.1 E 11 19 6 10 1021.1 1020.3 0.0
09/12:00pm 20.7 19.0 11.1 54 5.3 ESE 11 17 6 9 1021.5 1020.7 0.0
09/11:30am 20.0 17.9 11.2 57 4.9 ESE 13 19 7 10 1021.8 1021.0 0.0
09/11:00am 19.0 16.9 11.3 61 4.2 ESE 13 20 7 11 1021.8 1021.0 0.0
09/10:30am 18.4 16.4 11.5 64 3.8 E 13 20 7 11 1022.0 1021.2 0.0
09/10:00am 18.0 15.7 11.6 66 3.5 SE 15 22 8 12 1022.1 1021.3 0.0
09/09:30am 16.6 14.6 11.5 72 2.8 ESE 13 19 7 10 1022.4 1021.7 0.0
09/09:00am 15.7 14.1 11.5 76 2.3 SE 11 17 6 9 1022.5 1021.8 0.0
09/08:30am 14.9 13.7 11.7 81 1.7 SSE 9 13 5 7 1022.6 1021.9 0.0
09/08:00am 14.5 13.3 11.5 82 1.6 SE 9 13 5 7 1022.4 1021.7 0.0
09/07:30am 14.1 12.8 11.3 83 1.5 SE 9 15 5 8 1022.3 1021.6 0.0
09/07:00am 13.7 11.6 11.2 85 1.3 SSE 13 17 7 9 1022.0 1021.2 0.0
09/06:30am 13.4 12.1 11.1 86 1.2 SSE 9 13 5 7 1021.9 1021.1 0.0
09/06:00am 13.0 10.8 10.7 86 1.2 SSE 13 17 7 9 1021.6 1020.8 0.0
09/05:30am 13.7 11.6 11.0 84 1.4 SE 13 15 7 8 1021.6 1020.8 0.0
09/05:00am 13.9 11.0 11.1 83 1.5 SE 17 24 9 13 1021.5 1020.7 0.0
09/04:30am 13.6 11.5 11.0 84 1.4 SE 13 17 7 9 1021.7 1020.9 0.0
09/04:00am 13.5 11.0 11.0 85 1.3 ESE 15 20 8 11 1021.7 1020.9 0.0
09/03:30am 12.9 11.1 10.8 87 1.1 ESE 11 13 6 7 1021.8 1021.0 0.0
09/03:00am 13.2 11.0 10.9 86 1.2 ESE 13 15 7 8 1022.0 1021.2 0.0
09/02:30am 13.2 11.4 10.7 85 1.3 ESE 11 15 6 8 1022.3 1021.6 0.0
09/02:00am 13.6 11.8 11.0 84 1.4 ESE 11 15 6 8 1022.6 1021.9 0.0
09/01:30am 14.0 13.2 11.2 83 1.5 SSE 6 7 3 4 1022.8 1022.1 0.0
09/01:00am 14.3 14.0 11.3 82 1.6 SSE 4 4 2 2 1023.0 1022.3 0.0
09/12:30am 14.2 13.5 11.4 83 1.5 SSE 6 7 3 4 1023.2 1022.5 0.0
09/12:00am 14.3 13.4 11.3 82 1.6 SSE 7 9 4 5 1023.3 1022.6 0.0
 
Date/Time
EDT
Temp
°C
App
Temp
°C
Dew
Point
Rel
Hum
%
Delta-T
°C
Wind Press
QNH
hPa
Press
MSL
hPa
Rain
since 9 am
mm
Dir
 
Spd
km/h
Gust
km/h
Spd
kts
Gust
kts
08/11:30pm 14.5 13.3 11.7 83 1.5 SSE 9 11 5 6 1023.4 1022.7 0.0
08/11:00pm 14.7 13.5 11.5 81 1.7 SE 9 11 5 6 1023.6 1022.9 0.0
08/10:30pm 15.2 12.5 11.8 80 1.9 SSE 17 20 9 11 1023.6 1022.9 0.0
08/10:00pm 15.4 12.1 11.6 78 2.1 S 20 22 11 12 1023.5 1022.8 0.0
08/09:30pm 16.0 11.8 11.2 73 2.6 SSE 24 32 13 17 1023.2 1022.5 0.0
08/09:00pm 16.7 12.9 11.0 69 3.1 SSE 22 28 12 15 1023.0 1022.3 0.0
08/08:30pm 17.6 14.8 11.4 67 3.4 ESE 17 19 9 10 1022.8 1022.1 0.0
08/08:00pm 19.5 16.5 10.8 57 4.8 ESE 17 20 9 11 1022.3 1021.6 0.0
08/07:30pm 20.6 17.5 10.4 52 5.6 ESE 17 20 9 11 1022.0 1021.2 0.0
08/07:00pm 21.6 17.4 9.8 47 6.4 E 22 28 12 15 1021.6 1020.8 0.0
08/06:30pm 22.9 19.1 9.0 41 7.5 E 19 28 10 15 1021.4 1020.6 0.0
08/06:00pm 23.3 18.9 10.4 44 7.2 ENE 24 37 13 20 1021.4 1020.6 0.0
08/05:30pm 23.8 19.2 11.2 45 7.1 ENE 26 33 14 18 1021.3 1020.5 0.0
08/05:00pm 24.6 21.2 12.5 46 7.0 ENE 22 32 12 17 1021.4 1020.6 0.0
08/04:30pm 25.5 22.6 12.4 44 7.6 E 19 26 10 14 1021.4 1020.6 0.0
08/04:00pm 24.8 21.8 12.4 46 7.2 ENE 20 32 11 17 1021.6 1020.8 0.0
08/03:30pm 25.5 21.8 12.7 45 7.5 ENE 24 32 13 17 1021.7 1020.9 0.0
08/03:00pm 25.6 24.2 9.4 36 8.9 SSE 7 17 4 9 1021.9 1021.1 0.0
08/02:30pm 25.1 23.5 10.2 39 8.3 SE 9 15 5 8 1021.9 1021.1 0.0
08/02:00pm 24.5 22.8 10.0 40 8.0 SSE 9 20 5 11 1022.2 1021.4 0.0

Other Formats:

Comma delimited format used in spreadsheet applications
http://www.bom.gov.au/fwo/IDV60801/IDV60801.95845.axf

JavaScript Object Notation format (JSON) in row-major order
http://www.bom.gov.au/fwo/IDV60801/IDV60801.95845.json